NCAR-RAP Real-Time Weather Data

Output produced by METARs form (01 December 2020  18:31 UTC)
found at http://weather.rap.ucar.edu/surface/
 
KROC 011654Z 26010KT 7SM -SN BKN008 OVC030 02/01 A2944 RMK AO2 RAE32 SLP977 P0000 T00170011
KROC 011554Z 25011KT 10SM -SNRA OVC008 02/01 A2945 RMK AO2 SLP980 P0000 T00170011
KROC 011454Z 25011KT 10SM -RASN OVC007 02/01 A2944 RMK AO2 SLP977 P0000 60002 T00170011 51010
KROC 011354Z 24009KT 10SM -RASN OVC007 02/01 A2944 RMK AO2 RAE02B48 SLP975 P0002 T00170011
KROC 011254Z 24008KT 7SM -SNRA BKN007 OVC012 01/01 A2943 RMK AO2 SLP972 P0000 T00110011
KROC 011154Z 27007KT 6SM -RASN BR BKN006 OVC055 02/02 A2941 RMK AO2 SNB21 SLP967 P0001 60004 70099 T00220017 10039 20022 50001
KROC 011054Z 24008KT 8SM -RA BKN005 OVC012 03/03 A2942 RMK AO2 CIG 003V009 SLP967 P0002 T00330033
KROC 010954Z 27004KT 6SM -RA BR BKN009 OVC015 04/03 A2942 RMK AO2 RAB23 SLP967 P0000 T00390033
KROC 010854Z 27003KT 10SM BKN009 OVC012 04/04 A2941 RMK AO2 DZE0755 SLP965 P0000 60001 T00390039 58002
KROC 010815Z 28003KT 10SM BKN011 BKN020 OVC065 04/04 A2942 RMK AO2 DZE0755 P0000 T00390039
KROC 010754Z 00000KT 6SM -DZ BR FEW016 BKN022 OVC065 04/04 A2942 RMK AO2 SLP969 PCPN VRY LGT P0001 T00390039
KROC 010654Z 29004KT 6SM -DZ BR SCT005 OVC013 04/04 A2942 RMK AO2 DZE0555B49 SLP970 P0000 T00390039
KROC 010554Z 30005KT 6SM -DZ BR OVC005 04/04 A2942 RMK AO2 RAE0456DZB0456E33B42 SLP968 P0000 60002 T00390039 10067 20039 50004
KROC 010534Z 31005KT 9SM OVC005 04/04 A2942 RMK AO2 RAE0456DZB0456E33 P0000 T00440039
KROC 010454Z 30006KT 4SM -RA BR OVC004 04/04 A2942 RMK AO2 RAE03B32 SLP970 P0000 T00440039 400720017
KROC 010436Z 30006KT 5SM -RA BR OVC004 04/04 A2943 RMK AO2 RAE03B32 P0000 T00440044
KROC 010401Z 32005KT 10SM -RA OVC005 04/04 A2942 RMK AO2 P0000 T00440044
KROC 010354Z 32006KT 8SM -RA OVC004 04/04 A2942 RMK AO2 SLP968 P0000 T00440044
KROC 010259Z 31003KT 4SM -RA BR OVC004 04/04 A2941 RMK AO2 P0000 T00440044
KROC 010254Z 31005KT 4SM -RA BR OVC005 04/04 A2940 RMK AO2 CIG 003V008 SLP964 P0001 60002 T00440044 51022
KROC 010225Z 33006KT 3SM -RA BR OVC006 04/04 A2940 RMK AO2 P0000 T00440044
KROC 010204Z 32009KT 2 1/2SM -RA BR OVC004 05/04 A2940 RMK AO2 CIG 003V008 P0000 T00500044
KROC 010154Z 32005KT 3SM -RA BR OVC004 05/05 A2939 RMK AO2 CIG 003V008 SLP960 P0000 T00500050
KROC 010054Z 35010KT 4SM -RA BR OVC004 06/05 A2936 RMK AO2 SLP949 P0001 T00560050